Time;durP1;ratioP1;P1;durP2;ratioP2;P2;SDS_P1;SDS_P2;PMS_P1;PMS_P2;Temp;Humidity;BMP_temperature;BMP_pressure;BME280_temperature;BME280_humidity;BME280_pressure;Samples;Min_cycle;Max_cycle;Signal;HPM_P1;HPM_P2
2023/08/21 00:00:50;;;;;;;;;;;;;;;;;;4955591;28;19914;-93
2023/08/21 00:03:16;;;;;;;;;;;;;;;;;;4944195;29;19926;-95
2023/08/21 00:05:42;;;;;;;;;;;;;;;;;;4935145;28;19921;-93
2023/08/21 00:08:08;;;;;;;;;;;;;;;;;;4934277;29;19911;-92
2023/08/21 00:10:37;;;;;;;;;;;;;;;;;;4932773;28;19925;-92
2023/08/21 00:13:06;;;;;;;;;;;;;;;;;;4939013;29;19950;-92
2023/08/21 00:15:32;;;;;;;;;;;;;;;;;;4940995;29;19970;-93
2023/08/21 00:18:00;;;;;;;;;;;;;;;;;;4955635;28;19942;-92
2023/08/21 00:20:26;;;;;;;;;;;;;;;;;;4937302;29;19957;-93
2023/08/21 00:22:52;;;;;;;;;;;;;;;;;;4936393;29;19910;-93
2023/08/21 00:25:18;;;;;;;;;;;;;;;;;;4938448;28;19920;-92
2023/08/21 00:27:44;;;;;;;;;;;;;;;;;;4952939;28;19937;-92
2023/08/21 00:30:10;;;;;;;;;;;;;;;;;;4939425;29;20393;-92
2023/08/21 00:32:36;;;;;;;;;;;;;;;;;;4948992;28;19916;-92
2023/08/21 00:35:02;;;;;;;;;;;;;;;;;;4973080;28;19913;-92
2023/08/21 00:37:28;;;;;;;;;;;;;;;;;;4961628;28;19918;-90
2023/08/21 00:39:54;;;;;;;;;;;;;;;;;;4959095;28;20125;-90
2023/08/21 00:42:20;;;;;;;;;;;;;;;;;;4956159;28;19914;-90
2023/08/21 00:44:46;;;;;;;;;;;;;;;;;;4958857;28;20388;-89
2023/08/21 00:47:15;;;;;;;;;;;;;;;;;;4952861;28;19933;-90
2023/08/21 00:49:41;;;;;;;;;;;;;;;;;;4944669;28;19977;-90
2023/08/21 00:52:07;;;;;;;;;;;;;;;;;;4948342;28;20406;-89
2023/08/21 00:54:33;;;;;;;;;;;;;;;;;;4964165;28;19914;-89
2023/08/21 00:56:59;;;;;;;;;;;;;;;;;;4944501;28;19921;-91
2023/08/21 00:59:25;;;;;;;;;;;;;;;;;;4964350;28;19925;-90
2023/08/21 01:01:51;;;;;;;;;;;;;;;;;;4956562;28;19939;-92
2023/08/21 01:04:17;;;;;;;;;;;;;;;;;;4952995;28;19945;-90
2023/08/21 01:06:43;;;;;;;;;;;;;;;;;;4963650;28;19914;-91
2023/08/21 01:09:09;;;;;;;;;;;;;;;;;;4967278;28;20822;-90
2023/08/21 01:11:35;;;;;;;;;;;;;;;;;;4954903;28;19918;-89
2023/08/21 01:14:01;;;;;;;;;;;;;;;;;;4954512;28;19914;-90
2023/08/21 01:16:28;;;;;;;;;;;;;;;;;;4950102;28;20430;-89
2023/08/21 01:18:54;;;;;;;;;;;;;;;;;;4956414;28;19925;-91
2023/08/21 01:21:20;;;;;;;;;;;;;;;;;;4961087;28;20037;-90
2023/08/21 01:23:49;;;;;;;;;;;;;;;;;;4957689;28;19945;-90
2023/08/21 01:26:16;;;;;;;;;;;;;;;;;;4953032;28;19910;-90
2023/08/21 01:28:42;;;;;;;;;;;;;;;;;;4971966;28;19914;-89
2023/08/21 01:31:08;;;;;;;;;;;;;;;;;;4956413;28;20594;-90
2023/08/21 01:33:34;;;;;;;;;;;;;;;;;;4957319;28;19929;-90
2023/08/21 01:36:07;;;;;;;;;;;;;;;;;;4960839;28;19923;-91
2023/08/21 01:38:33;;;;;;;;;;;;;;;;;;4960945;28;20204;-90
2023/08/21 01:40:59;;;;;;;;;;;;;;;;;;4974144;28;19928;-91
2023/08/21 01:43:31;;;;;;;;;;;;;;;;;;4963704;28;19918;-91
2023/08/21 01:45:57;;;;;;;;;;;;;;;;;;4970594;28;19905;-93
2023/08/21 01:48:23;;;;;;;;;;;;;;;;;;4966574;28;19921;-93
2023/08/21 01:50:49;;;;;;;;;;;;;;;;;;4964179;28;20012;-92
2023/08/21 01:53:18;;;;;;;;;;;;;;;;;;4980263;28;20261;-92
2023/08/21 01:55:44;;;;;;;;;;;;;;;;;;4982198;28;20121;-93
2023/08/21 01:58:13;;;;;;;;;;;;;;;;;;4967423;28;20495;-92
2023/08/21 02:00:40;;;;;;;;;;;;;;;;;;4986024;28;19910;-95
2023/08/21 02:03:06;;;;;;;;;;;;;;;;;;4966997;28;19917;-93
2023/08/21 02:05:32;;;;;;;;;;;;;;;;;;4981005;28;19914;-93
2023/08/21 02:07:58;;;;;;;;;;;;;;;;;;4978485;28;19913;-93
2023/08/21 02:10:24;;;;;;;;;;;;;;;;;;4968303;28;19910;-92
2023/08/21 02:12:51;;;;;;;;;;;;;;;;;;4975724;28;19953;-92
2023/08/21 02:15:17;;;;;;;;;;;;;;;;;;4976116;28;21255;-92
2023/08/21 02:17:43;;;;;;;;;;;;;;;;;;4989794;28;19918;-93
2023/08/21 02:20:09;;;;;;;;;;;;;;;;;;4981089;28;19934;-93
2023/08/21 02:22:35;;;;;;;;;;;;;;;;;;4966675;28;20149;-94
2023/08/21 02:25:02;;;;;;;;;;;;;;;;;;4982374;28;20408;-93
2023/08/21 02:27:34;;;;;;;;;;;;;;;;;;4963069;28;19910;-93
2023/08/21 02:30:00;;;;;;;;;;;;;;;;;;4978172;28;19914;-92
2023/08/21 02:32:26;;;;;;;;;;;;;;;;;;4962471;28;19938;-93
2023/08/21 02:34:52;;;;;;;;;;;;;;;;;;4961412;28;19942;-92
2023/08/21 02:37:18;;;;;;;;;;;;;;;;;;4962473;28;19969;-94
2023/08/21 02:39:44;;;;;;;;;;;;;;;;;;4961237;28;20386;-92
2023/08/21 02:42:13;;;;;;;;;;;;;;;;;;4980400;28;19998;-91
2023/08/21 02:44:38;;;;;;;;;;;;;;;;;;4958995;28;19984;-92
2023/08/21 02:47:04;;;;;;;;;;;;;;;;;;4976521;28;19910;-93
2023/08/21 02:49:30;;;;;;;;;;;;;;;;;;4964810;28;19925;-93
2023/08/21 02:51:57;;;;;;;;;;;;;;;;;;4977046;28;19953;-92
2023/08/21 02:54:23;;;;;;;;;;;;;;;;;;4978693;28;19914;-92
2023/08/21 02:56:49;;;;;;;;;;;;;;;;;;4967863;28;19921;-93
2023/08/21 02:59:14;;;;;;;;;;;;;;;;;;4976684;28;19954;-92
2023/08/21 03:01:41;;;;;;;;;;;;;;;;;;4974181;28;19952;-92
2023/08/21 03:04:07;;;;;;;;;;;;;;;;;;4989062;28;19910;-92
2023/08/21 03:06:32;;;;;;;;;;;;;;;;;;4989260;28;19929;-91
2023/08/21 03:09:02;;;;;;;;;;;;;;;;;;4972537;28;19914;-91
2023/08/21 03:11:28;;;;;;;;;;;;;;;;;;4989084;28;19910;-90
2023/08/21 03:13:54;;;;;;;;;;;;;;;;;;4979773;28;19957;-91
2023/08/21 03:16:20;;;;;;;;;;;;;;;;;;4976144;28;20412;-92
2023/08/21 03:18:46;;;;;;;;;;;;;;;;;;4963205;28;20021;-93
2023/08/21 03:21:11;;;;;;;;;;;;;;;;;;4967193;28;19914;-92
2023/08/21 03:23:41;;;;;;;;;;;;;;;;;;4956376;28;19961;-92
2023/08/21 03:26:07;;;;;;;;;;;;;;;;;;4974356;28;19961;-93
2023/08/21 03:28:33;;;;;;;;;;;;;;;;;;4972941;28;19914;-92
2023/08/21 03:31:00;;;;;;;;;;;;;;;;;;4963091;28;19975;-90
2023/08/21 03:33:26;;;;;;;;;;;;;;;;;;4961583;28;19918;-90
2023/08/21 03:35:52;;;;;;;;;;;;;;;;;;4967594;28;20326;-92
2023/08/21 03:38:18;;;;;;;;;;;;;;;;;;4977723;28;19996;-91
2023/08/21 03:40:45;;;;;;;;;;;;;;;;;;4960672;28;19910;-91
2023/08/21 03:43:13;;;;;;;;;;;;;;;;;;4979761;28;19914;-91
2023/08/21 03:45:39;;;;;;;;;;;;;;;;;;4961160;28;19938;-92
2023/08/21 03:48:05;;;;;;;;;;;;;;;;;;4967087;28;19917;-92
2023/08/21 03:50:31;;;;;;;;;;;;;;;;;;4962843;28;19925;-92
2023/08/21 03:52:57;;;;;;;;;;;;;;;;;;4963236;28;20371;-92
2023/08/21 03:55:26;;;;;;;;;;;;;;;;;;4981348;28;19945;-92
2023/08/21 03:57:52;;;;;;;;;;;;;;;;;;4968318;28;19914;-93
2023/08/21 04:00:18;;;;;;;;;;;;;;;;;;4961309;28;20363;-93
2023/08/21 04:02:47;;;;;;;;;;;;;;;;;;4979385;28;19909;-93
2023/08/21 04:05:13;;;;;;;;;;;;;;;;;;4960167;28;19986;-92
2023/08/21 04:07:39;;;;;;;;;;;;;;;;;;4969160;28;19910;-92
2023/08/21 04:10:05;;;;;;;;;;;;;;;;;;4965708;28;19910;-90
2023/08/21 04:12:31;;;;;;;;;;;;;;;;;;4967662;28;20000;-91
2023/08/21 04:14:57;;;;;;;;;;;;;;;;;;4963319;28;19964;-92
2023/08/21 04:17:26;;;;;;;;;;;;;;;;;;4981076;28;19917;-90
2023/08/21 04:19:52;;;;;;;;;;;;;;;;;;4960333;28;19914;-91
2023/08/21 04:22:18;;;;;;;;;;;;;;;;;;4961323;28;20325;-90
2023/08/21 04:24:44;;;;;;;;;;;;;;;;;;4989051;28;19914;-91
2023/08/21 04:27:10;;;;;;;;;;;;;;;;;;4986627;28;19918;-91
2023/08/21 04:29:40;;;;;;;;;;;;;;;;;;4971850;28;19918;-92
2023/08/21 04:32:06;;;;;;;;;;;;;;;;;;4971158;28;20422;-92
2023/08/21 04:34:32;;;;;;;;;;;;;;;;;;4989931;28;19921;-92
2023/08/21 04:36:58;;;;;;;;;;;;;;;;;;4984742;28;20022;-92
2023/08/21 04:39:23;;;;;;;;;;;;;;;;;;4968008;28;19922;-90
2023/08/21 04:41:49;;;;;;;;;;;;;;;;;;4959203;28;19916;-89
2023/08/21 04:44:16;;;;;;;;;;;;;;;;;;4954837;28;19976;-90
2023/08/21 04:46:42;;;;;;;;;;;;;;;;;;4957388;28;19984;-90
2023/08/21 04:49:08;;;;;;;;;;;;;;;;;;4959522;28;19941;-90
2023/08/21 04:51:34;;;;;;;;;;;;;;;;;;4974660;28;19925;-91
2023/08/21 04:54:00;;;;;;;;;;;;;;;;;;4959470;28;19909;-91
2023/08/21 04:56:26;;;;;;;;;;;;;;;;;;4975104;28;19925;-91
2023/08/21 04:58:52;;;;;;;;;;;;;;;;;;4973523;28;19914;-91
2023/08/21 05:01:18;;;;;;;;;;;;;;;;;;4959655;28;19910;-91
2023/08/21 05:03:44;;;;;;;;;;;;;;;;;;4969119;28;20040;-89
2023/08/21 05:06:10;;;;;;;;;;;;;;;;;;4969368;28;19950;-90
2023/08/21 05:08:36;;;;;;;;;;;;;;;;;;4972893;28;20573;-90
2023/08/21 05:11:02;;;;;;;;;;;;;;;;;;4960398;28;19910;-90
2023/08/21 05:13:28;;;;;;;;;;;;;;;;;;4972197;28;19939;-91
2023/08/21 05:15:57;;;;;;;;;;;;;;;;;;4959687;28;20529;-89
2023/08/21 05:18:23;;;;;;;;;;;;;;;;;;4960483;28;19914;-90
2023/08/21 05:20:49;;;;;;;;;;;;;;;;;;4972624;28;19917;-87
2023/08/21 05:23:15;;;;;;;;;;;;;;;;;;4953881;28;19941;-88
2023/08/21 05:25:40;;;;;;;;;;;;;;;;;;4954258;28;20358;-88
2023/08/21 05:28:13;;;;;;;;;;;;;;;;;;4948403;28;20445;-89
2023/08/21 05:30:39;;;;;;;;;;;;;;;;;;4970586;28;20289;-89
2023/08/21 05:33:05;;;;;;;;;;;;;;;;;;4949306;28;20410;-89
2023/08/21 05:35:31;;;;;;;;;;;;;;;;;;4967640;28;19961;-90
2023/08/21 05:37:57;;;;;;;;;;;;;;;;;;4948087;28;19922;-89
2023/08/21 05:40:23;;;;;;;;;;;;;;;;;;4929973;29;19919;-89
2023/08/21 05:42:49;;;;;;;;;;;;;;;;;;4927961;28;19914;-88
2023/08/21 05:45:15;;;;;;;;;;;;;;;;;;4929672;28;20386;-90
2023/08/21 05:47:41;;;;;;;;;;;;;;;;;;4935954;29;20391;-89
2023/08/21 05:50:07;;;;;;;;;;;;;;;;;;4937909;28;19925;-88
2023/08/21 05:52:33;;;;;;;;;;;;;;;;;;4937784;28;19918;-89
2023/08/21 05:54:59;;;;;;;;;;;;;;;;;;4936224;28;20126;-88
2023/08/21 05:57:25;;;;;;;;;;;;;;;;;;4934411;29;19949;-89
2023/08/21 05:59:57;;;;;;;;;;;;;;;;;;4937597;28;19910;-88
2023/08/21 06:02:23;;;;;;;;;;;;;;;;;;4936425;29;19917;-89
2023/08/21 06:04:49;;;;;;;;;;;;;;;;;;4937509;28;19921;-90
2023/08/21 06:07:15;;;;;;;;;;;;;;;;;;4934610;29;19911;-90
2023/08/21 06:09:41;;;;;;;;;;;;;;;;;;4938628;28;20816;-91
2023/08/21 06:12:07;;;;;;;;;;;;;;;;;;4933116;29;20009;-92
2023/08/21 06:14:33;;;;;;;;;;;;;;;;;;4951558;28;19914;-89
2023/08/21 06:16:59;;;;;;;;;;;;;;;;;;4953548;28;19918;-90
2023/08/21 06:19:31;;;;;;;;;;;;;;;;;;4940944;28;19918;-89
2023/08/21 06:21:57;;;;;;;;;;;;;;;;;;4936586;29;19940;-90
2023/08/21 06:24:32;;;;;;;;;;;;;;;;;;4935053;28;20048;-90
2023/08/21 06:26:58;;;;;;;;;;;;;;;;;;4940972;29;19949;-91
2023/08/21 06:29:25;;;;;;;;;;;;;;;;;;4936488;29;19918;-90
2023/08/21 06:31:57;;;;;;;;;;;;;;;;;;4932746;28;21222;-92
2023/08/21 06:34:23;;;;;;;;;;;;;;;;;;4945639;28;19911;-91
2023/08/21 06:36:49;;;;;;;;;;;;;;;;;;4945062;28;20362;-92
2023/08/21 06:42:05;;;;;;;;;;;;;;;;;;4946680;28;19918;-92
2023/08/21 06:44:37;;;;;;;;;;;;;;;;;;4948881;28;20298;-92
2023/08/21 06:47:03;;;;;;;;;;;;;;;;;;4961745;28;19952;-91
2023/08/21 06:49:29;;;;;;;;;;;;;;;;;;4945234;28;19941;-92
2023/08/21 06:52:05;;;;;;;;;;;;;;;;;;;;;
2023/08/21 06:54:32;;;;;;;;;;;;;;;;;;4967099;28;19917;-91
2023/08/21 06:57:00;;;;;;;;;;;;;;;;;;4944975;28;19956;-92
2023/08/21 06:59:26;;;;;;;;;;;;;;;;;;4949282;28;20000;-91
2023/08/21 07:01:53;;;;;;;;;;;;;;;;;;4947168;28;20033;-92
2023/08/21 07:04:19;;;;;;;;;;;;;;;;;;4962193;28;20374;-92
2023/08/21 07:06:47;;;;;;;;;;;;;;;;;;4948036;28;19997;-92
2023/08/21 07:09:13;;;;;;;;;;;;;;;;;;4946661;28;19917;-92
2023/08/21 07:11:45;;;;;;;;;;;;;;;;;;4961157;28;19918;-92
2023/08/21 07:14:13;;;;;;;;;;;;;;;;;;4944968;28;19917;-90
2023/08/21 07:16:42;;;;;;;;;;;;;;;;;;4947283;28;19914;-90
2023/08/21 07:19:08;;;;;;;;;;;;;;;;;;4948113;28;19910;-90
2023/08/21 07:21:36;;;;;;;;;;;;;;;;;;4948729;28;20320;-91
2023/08/21 07:24:02;;;;;;;;;;;;;;;;;;4963165;28;20389;-91
2023/08/21 07:26:28;;;;;;;;;;;;;;;;;;4961738;28;19914;-91
2023/08/21 07:28:54;;;;;;;;;;;;;;;;;;4947923;28;20596;-90
2023/08/21 07:31:20;;;;;;;;;;;;;;;;;;4948655;28;19910;-90
2023/08/21 07:33:46;;;;;;;;;;;;;;;;;;4943320;28;19918;-92
2023/08/21 07:36:16;;;;;;;;;;;;;;;;;;4949301;28;19910;-93
2023/08/21 07:38:42;;;;;;;;;;;;;;;;;;4947504;28;20686;-92
2023/08/21 07:41:09;;;;;;;;;;;;;;;;;;4947883;28;19964;-93
2023/08/21 07:43:36;;;;;;;;;;;;;;;;;;4946272;28;19913;-94
2023/08/21 07:46:02;;;;;;;;;;;;;;;;;;4963440;28;19917;-94
2023/08/21 07:48:28;;;;;;;;;;;;;;;;;;4963905;28;19914;-95
2023/08/21 07:50:54;;;;;;;;;;;;;;;;;;4947322;28;19921;-93
2023/08/21 07:53:20;;;;;;;;;;;;;;;;;;4969486;28;19914;-93
2023/08/21 07:55:46;;;;;;;;;;;;;;;;;;4947058;28;20394;-94
2023/08/21 07:58:12;;;;;;;;;;;;;;;;;;4950118;28;19910;-94
2023/08/21 08:00:38;;;;;;;;;;;;;;;;;;4952970;28;19941;-93
2023/08/21 08:03:05;;;;;;;;;;;;;;;;;;4967413;28;19910;-95
2023/08/21 08:05:43;;;;;;;;;;;;;;;;;;4950083;28;19914;-95
2023/08/21 08:08:09;;;;;;;;;;;;;;;;;;4965102;28;19925;-93
2023/08/21 08:10:35;;;;;;;;;;;;;;;;;;4951152;28;20363;-94
2023/08/21 08:13:01;;;;;;;;;;;;;;;;;;4953748;28;19922;-93
2023/08/21 08:15:27;;;;;;;;;;;;;;;;;;4948891;28;19921;-94
2023/08/21 08:17:59;;;;;;;;;;;;;;;;;;4946686;28;19975;-94
2023/08/21 08:20:38;;;;;;;;;;;;;;;;;;4965569;28;19944;-95
2023/08/21 08:23:14;;;;;;;;;;;;;;;;;;4970704;28;20384;-94
2023/08/21 08:25:40;;;;;;;;;;;;;;;;;;4970876;28;19910;-93
2023/08/21 08:28:06;;;;;;;;;;;;;;;;;;4954156;28;19914;-95
2023/08/21 08:30:32;;;;;;;;;;;;;;;;;;4966828;28;19910;-95
2023/08/21 08:32:58;;;;;;;;;;;;;;;;;;4952374;28;19924;-94
2023/08/21 08:35:24;;;;;;;;;;;;;;;;;;4964775;28;19910;-94
2023/08/21 08:37:50;;;;;;;;;;;;;;;;;;4968864;28;19918;-93
2023/08/21 08:40:16;;;;;;;;;;;;;;;;;;4949706;28;19925;-93
2023/08/21 08:42:45;;;;;;;;;;;;;;;;;;4952777;28;19914;-93
2023/08/21 08:45:17;;;;;;;;;;;;;;;;;;4953009;28;19914;-93
2023/08/21 08:47:45;;;;;;;;;;;;;;;;;;4973259;28;20005;-92
2023/08/21 08:50:20;;;;;;;;;;;;;;;;;;4954423;28;19969;-93
2023/08/21 08:52:57;;;;;;;;;;;;;;;;;;4958744;28;20005;-93
2023/08/21 08:55:23;;;;;;;;;;;;;;;;;;4984122;28;19918;-93
2023/08/21 08:57:53;;;;;;;;;;;;;;;;;;4981955;28;19952;-93
2023/08/21 09:00:28;;;;;;;;;;;;;;;;;;4980731;28;19909;-96
2023/08/21 09:02:54;;;;;;;;;;;;;;;;;;4981754;28;19922;-94
2023/08/21 09:10:53;;;;;;;;;;;;;;;;;;4986212;28;19913;-95
2023/08/21 09:16:11;;;;;;;;;;;;;;;;;;4968173;28;19921;-93
2023/08/21 09:18:38;;;;;;;;;;;;;;;;;;4966299;28;19918;-95
2023/08/21 09:21:08;;;;;;;;;;;;;;;;;;4959567;28;19913;-93
2023/08/21 09:23:44;;;;;;;;;;;;;;;;;;4965671;28;19910;-94
2023/08/21 09:34:26;;;;;;;;;;;;;;;;;;4897088;29;20287;-92
2023/08/21 09:36:52;;;;;;;;;;;;;;;;;;4906967;29;19918;-93
2023/08/21 09:39:32;;;;;;;;;;;;;;;;;;;;;
2023/08/21 09:41:58;;;;;;;;;;;;;;;;;;4944307;28;20290;-94
2023/08/21 09:44:25;;;;;;;;;;;;;;;;;;4924208;29;20153;-95
2023/08/21 09:46:54;;;;;;;;;;;;;;;;;;4922170;28;19999;-93
2023/08/21 09:49:21;;;;;;;;;;;;;;;;;;4928795;29;19926;-93
2023/08/21 09:51:59;;;;;;;;;;;;;;;;;;4924142;28;19925;-93
2023/08/21 09:54:31;;;;;;;;;;;;;;;;;;4930435;28;19932;-93
2023/08/21 09:59:47;;;;;;;;;;;;;;;;;;4969878;28;19972;-92
2023/08/21 10:05:07;;;;;;;;;;;;;;;;;;4970562;28;19965;-92
2023/08/21 10:10:19;;;;;;;;;;;;;;;;;;4964696;28;19920;-93
2023/08/21 10:12:45;;;;;;;;;;;;;;;;;;4959030;28;19946;-93
2023/08/21 10:15:11;;;;;;;;;;;;;;;;;;4963577;28;19956;-92
2023/08/21 10:17:40;;;;;;;;;;;;;;;;;;4953943;28;19961;-93
2023/08/21 10:20:07;;;;;;;;;;;;;;;;;;4972331;28;19914;-93
2023/08/21 10:22:33;;;;;;;;;;;;;;;;;;4957711;28;19950;-92
2023/08/21 10:25:02;;;;;;;;;;;;;;;;;;4969410;28;19921;-93
2023/08/21 10:27:28;;;;;;;;;;;;;;;;;;4950251;28;19946;-92
2023/08/21 10:30:03;;;;;;;;;;;;;;;;;;4968141;28;19910;-92
2023/08/21 10:32:33;;;;;;;;;;;;;;;;;;4966190;28;19929;-92
2023/08/21 10:37:52;;;;;;;;;;;;;;;;;;4972014;28;19914;-93
2023/08/21 10:43:14;;;;;;;;;;;;;;;;;;4927556;29;19919;-92
2023/08/21 10:45:42;;;;;;;;;;;;;;;;;;4926955;29;20059;-92
2023/08/21 10:48:08;;;;;;;;;;;;;;;;;;4950846;28;19910;-92
2023/08/21 10:50:44;;;;;;;;;;;;;;;;;;4962705;28;19910;-92
2023/08/21 10:53:39;;;;;;;;;;;;;;;;;;;;;
2023/08/21 10:56:14;;;;;;;;;;;;;;;;;;4988945;28;19945;-91
2023/08/21 11:01:46;;;;;;;;;;;;;;;;;;;;;
2023/08/21 11:07:43;;;;;;;;;;;;;;;;;;4985150;28;19921;-91
2023/08/21 11:12:46;;;;;;;;;;;;;;;;;;4947846;28;19901;-93
2023/08/21 11:18:06;;;;;;;;;;;;;;;;;;4915901;29;19941;-91
2023/08/21 11:20:32;;;;;;;;;;;;;;;;;;4891457;29;19919;-91
2023/08/21 11:23:07;;;;;;;;;;;;;;;;;;4933962;28;19960;-92
2023/08/21 11:25:33;;;;;;;;;;;;;;;;;;4960695;28;20088;-91
2023/08/21 12:40:50;;;;;;;;;;;;;;;;;;4944442;28;19985;-92
2023/08/21 12:43:16;;;;;;;;;;;;;;;;;;4929701;29;19910;-91
2023/08/21 12:45:48;;;;;;;;;;;;;;;;;;4926130;28;19918;-91
2023/08/21 12:48:14;;;;;;;;;;;;;;;;;;4928398;29;20628;-91
2023/08/21 12:50:40;;;;;;;;;;;;;;;;;;4940238;28;19911;-91
2023/08/21 12:53:06;;;;;;;;;;;;;;;;;;4927567;29;21510;-92
2023/08/21 12:55:32;;;;;;;;;;;;;;;;;;4921007;28;19910;-91
2023/08/21 12:57:58;;;;;;;;;;;;;;;;;;4927864;29;19999;-91
2023/08/21 13:00:32;;;;;;;;;;;;;;;;;;4917898;28;19925;-90
2023/08/21 13:02:58;;;;;;;;;;;;;;;;;;4921911;29;19919;-91
2023/08/21 13:05:27;;;;;;;;;;;;;;;;;;4920617;28;19910;-91
2023/08/21 13:07:53;;;;;;;;;;;;;;;;;;4917354;29;19925;-92
2023/08/21 13:10:19;;;;;;;;;;;;;;;;;;4939215;28;20790;-91
2023/08/21 13:12:45;;;;;;;;;;;;;;;;;;4924598;28;19968;-91
2023/08/21 13:15:10;;;;;;;;;;;;;;;;;;4920283;28;19921;-90
2023/08/21 13:17:36;;;;;;;;;;;;;;;;;;4925711;28;19982;-90
2023/08/21 13:20:02;;;;;;;;;;;;;;;;;;4924423;28;19941;-90
2023/08/21 13:22:28;;;;;;;;;;;;;;;;;;4925786;29;19918;-90
2023/08/21 13:24:57;;;;;;;;;;;;;;;;;;4939100;28;19918;-92
2023/08/21 13:27:24;;;;;;;;;;;;;;;;;;4944814;28;19914;-91
2023/08/21 13:29:50;;;;;;;;;;;;;;;;;;4944642;28;19922;-90
2023/08/21 13:32:16;;;;;;;;;;;;;;;;;;4930025;29;19965;-91
2023/08/21 13:34:41;;;;;;;;;;;;;;;;;;4927258;29;20396;-91
2023/08/21 13:37:07;;;;;;;;;;;;;;;;;;4930950;29;19919;-91
2023/08/21 13:39:33;;;;;;;;;;;;;;;;;;4924114;28;19926;-89
2023/08/21 13:42:00;;;;;;;;;;;;;;;;;;4925141;29;19922;-90
2023/08/21 13:44:25;;;;;;;;;;;;;;;;;;4928858;29;19911;-89
2023/08/21 13:46:51;;;;;;;;;;;;;;;;;;4924761;28;20307;-90
2023/08/21 13:49:17;;;;;;;;;;;;;;;;;;4923198;28;19925;-89
2023/08/21 13:51:43;;;;;;;;;;;;;;;;;;4928529;28;20507;-90
2023/08/21 13:54:09;;;;;;;;;;;;;;;;;;4940983;28;19922;-89
2023/08/21 13:56:38;;;;;;;;;;;;;;;;;;4928279;28;19911;-90
2023/08/21 13:59:04;;;;;;;;;;;;;;;;;;4940102;28;19918;-90
2023/08/21 14:01:30;;;;;;;;;;;;;;;;;;4925665;28;20378;-91
2023/08/21 14:03:56;;;;;;;;;;;;;;;;;;4930403;29;19929;-90
2023/08/21 14:06:23;;;;;;;;;;;;;;;;;;4939642;28;19910;-90
2023/08/21 14:08:48;;;;;;;;;;;;;;;;;;4926960;29;20409;-89
2023/08/21 14:11:15;;;;;;;;;;;;;;;;;;4928737;28;19918;-89
2023/08/21 14:13:53;;;;;;;;;;;;;;;;;;4942333;28;20456;-90
2023/08/21 14:16:19;;;;;;;;;;;;;;;;;;4929263;28;19910;-91
2023/08/21 14:18:45;;;;;;;;;;;;;;;;;;4944289;29;20278;-91
2023/08/21 14:21:11;;;;;;;;;;;;;;;;;;4938510;28;19925;-90
2023/08/21 14:23:39;;;;;;;;;;;;;;;;;;4936014;28;20012;-91
2023/08/21 14:26:05;;;;;;;;;;;;;;;;;;4938384;28;20377;-88
2023/08/21 14:28:31;;;;;;;;;;;;;;;;;;4939038;29;19906;-89
2023/08/21 14:31:00;;;;;;;;;;;;;;;;;;4934577;28;20001;-90
2023/08/21 14:33:29;;;;;;;;;;;;;;;;;;4935620;28;20010;-90
2023/08/21 14:35:56;;;;;;;;;;;;;;;;;;4937686;28;19911;-91
2023/08/21 14:41:16;;;;;;;;;;;;;;;;;;4902766;28;19924;-91
2023/08/21 14:43:42;;;;;;;;;;;;;;;;;;4935293;29;19969;-89
2023/08/21 14:46:08;;;;;;;;;;;;;;;;;;4940057;29;20167;-90
2023/08/21 14:48:34;;;;;;;;;;;;;;;;;;4936491;28;19921;-91
2023/08/21 14:51:00;;;;;;;;;;;;;;;;;;4934446;29;19914;-91
2023/08/21 14:53:35;;;;;;;;;;;;;;;;;;4946972;28;19922;-90
2023/08/21 14:56:03;;;;;;;;;;;;;;;;;;4939309;28;20386;-89
2023/08/21 15:01:20;;;;;;;;;;;;;;;;;;4955057;28;20421;-90
2023/08/21 15:12:20;;;;;;;;;;;;;;;;;;4946095;28;19918;-90
2023/08/21 15:14:46;;;;;;;;;;;;;;;;;;4939852;28;19918;-90
2023/08/21 15:17:21;;;;;;;;;;;;;;;;;;4920645;29;19915;-90
2023/08/21 15:19:50;;;;;;;;;;;;;;;;;;4900820;29;19926;-90
2023/08/21 15:22:16;;;;;;;;;;;;;;;;;;4915248;29;20041;-89
2023/08/21 15:24:42;;;;;;;;;;;;;;;;;;4900228;29;19955;-89
2023/08/21 15:27:08;;;;;;;;;;;;;;;;;;4900322;29;20425;-89
2023/08/21 15:29:36;;;;;;;;;;;;;;;;;;4916091;29;19915;-89
2023/08/21 15:32:02;;;;;;;;;;;;;;;;;;4915890;29;20394;-88
2023/08/21 15:34:29;;;;;;;;;;;;;;;;;;4920431;29;19914;-89
2023/08/21 15:36:56;;;;;;;;;;;;;;;;;;4899409;29;19922;-89
2023/08/21 15:39:42;;;;;;;;;;;;;;;;;;4902494;28;19935;-88
2023/08/21 15:42:11;;;;;;;;;;;;;;;;;;4898956;29;19933;-88
2023/08/21 15:44:38;;;;;;;;;;;;;;;;;;4903916;29;19917;-87
2023/08/21 15:47:04;;;;;;;;;;;;;;;;;;4907614;29;19944;-86
2023/08/21 15:49:37;;;;;;;;;;;;;;;;;;4955100;28;19918;-86
2023/08/21 15:52:03;;;;;;;;;;;;;;;;;;4938291;29;19922;-86
2023/08/21 15:54:32;;;;;;;;;;;;;;;;;;4937465;28;19950;-87
2023/08/21 15:56:58;;;;;;;;;;;;;;;;;;4940572;28;20442;-86
2023/08/21 15:59:24;;;;;;;;;;;;;;;;;;4942525;28;19969;-89
2023/08/21 16:01:50;;;;;;;;;;;;;;;;;;4938201;28;20008;-87
2023/08/21 16:04:29;;;;;;;;;;;;;;;;;;4937114;28;19915;-88
2023/08/21 16:06:55;;;;;;;;;;;;;;;;;;4931697;29;20157;-89
2023/08/21 16:09:21;;;;;;;;;;;;;;;;;;4928750;29;19937;-88
2023/08/21 16:11:47;;;;;;;;;;;;;;;;;;4928887;29;19949;-87
2023/08/21 16:14:17;;;;;;;;;;;;;;;;;;4934354;28;19961;-87
2023/08/21 16:16:43;;;;;;;;;;;;;;;;;;4935450;28;20844;-87
2023/08/21 16:19:09;;;;;;;;;;;;;;;;;;4934875;28;19918;-88
2023/08/21 16:21:35;;;;;;;;;;;;;;;;;;4928723;29;19911;-86
2023/08/21 16:24:02;;;;;;;;;;;;;;;;;;4929924;28;19914;-86
2023/08/21 16:26:29;;;;;;;;;;;;;;;;;;4938351;29;19919;-86
2023/08/21 16:28:55;;;;;;;;;;;;;;;;;;4937540;28;19942;-88
2023/08/21 16:31:21;;;;;;;;;;;;;;;;;;4935476;28;19914;-88
2023/08/21 16:33:47;;;;;;;;;;;;;;;;;;4931825;29;19926;-86
2023/08/21 16:36:13;;;;;;;;;;;;;;;;;;4937329;28;19934;-86
2023/08/21 16:38:39;;;;;;;;;;;;;;;;;;4930632;28;19976;-86
2023/08/21 16:41:05;;;;;;;;;;;;;;;;;;4940362;28;19985;-86
2023/08/21 16:43:34;;;;;;;;;;;;;;;;;;4912087;29;19918;-87
2023/08/21 16:46:00;;;;;;;;;;;;;;;;;;4914534;29;19922;-87
2023/08/21 16:48:26;;;;;;;;;;;;;;;;;;4933751;29;20497;-87
2023/08/21 16:50:52;;;;;;;;;;;;;;;;;;4916292;29;19919;-87
2023/08/21 16:53:17;;;;;;;;;;;;;;;;;;4918179;29;19914;-87
2023/08/21 16:55:46;;;;;;;;;;;;;;;;;;4920592;29;19910;-87
2023/08/21 16:58:18;;;;;;;;;;;;;;;;;;4931528;29;19946;-88
2023/08/21 17:00:44;;;;;;;;;;;;;;;;;;4915494;29;20276;-88
2023/08/21 17:03:12;;;;;;;;;;;;;;;;;;4916781;29;19935;-88
2023/08/21 17:05:38;;;;;;;;;;;;;;;;;;4905184;29;19997;-86
2023/08/21 17:08:04;;;;;;;;;;;;;;;;;;4916701;29;20268;-86
2023/08/21 17:10:30;;;;;;;;;;;;;;;;;;4914483;29;19954;-86
2023/08/21 17:12:56;;;;;;;;;;;;;;;;;;4925488;29;19919;-86
2023/08/21 17:15:23;;;;;;;;;;;;;;;;;;4916516;29;19954;-87
2023/08/21 17:17:56;;;;;;;;;;;;;;;;;;4916253;29;19915;-85
2023/08/21 17:20:25;;;;;;;;;;;;;;;;;;4912563;29;19918;-86
2023/08/21 17:22:51;;;;;;;;;;;;;;;;;;4908045;29;19932;-87
2023/08/21 17:25:17;;;;;;;;;;;;;;;;;;4909411;29;20394;-87
2023/08/21 17:27:43;;;;;;;;;;;;;;;;;;4906394;29;19911;-87
2023/08/21 17:30:09;;;;;;;;;;;;;;;;;;4910003;29;19919;-86
2023/08/21 17:32:35;;;;;;;;;;;;;;;;;;4912934;29;20009;-86
2023/08/21 17:35:02;;;;;;;;;;;;;;;;;;4927418;29;19946;-86
2023/08/21 17:37:28;;;;;;;;;;;;;;;;;;4912663;29;19949;-86
2023/08/21 17:39:54;;;;;;;;;;;;;;;;;;4932900;28;19945;-86
2023/08/21 17:42:20;;;;;;;;;;;;;;;;;;4933328;28;20228;-86
2023/08/21 17:44:46;;;;;;;;;;;;;;;;;;4930338;29;19952;-86
2023/08/21 17:47:12;;;;;;;;;;;;;;;;;;4930841;28;20307;-85
2023/08/21 17:49:37;;;;;;;;;;;;;;;;;;4926810;29;19962;-87
2023/08/21 17:52:04;;;;;;;;;;;;;;;;;;4931579;28;19945;-86
2023/08/21 17:54:30;;;;;;;;;;;;;;;;;;4933909;29;19918;-86
2023/08/21 17:56:56;;;;;;;;;;;;;;;;;;4947863;28;19965;-87
2023/08/21 17:59:22;;;;;;;;;;;;;;;;;;4932002;28;20410;-85
2023/08/21 18:01:48;;;;;;;;;;;;;;;;;;4930744;28;20322;-86
2023/08/21 18:04:14;;;;;;;;;;;;;;;;;;4932040;29;19914;-86
2023/08/21 18:06:40;;;;;;;;;;;;;;;;;;4932285;28;19911;-86
2023/08/21 18:09:07;;;;;;;;;;;;;;;;;;4932538;28;19915;-86
2023/08/21 18:11:33;;;;;;;;;;;;;;;;;;4927490;28;20081;-86
2023/08/21 18:13:59;;;;;;;;;;;;;;;;;;4931294;28;19930;-87
2023/08/21 18:16:25;;;;;;;;;;;;;;;;;;4946190;28;19914;-87
2023/08/21 18:18:51;;;;;;;;;;;;;;;;;;4930056;28;19953;-88
2023/08/21 18:21:17;;;;;;;;;;;;;;;;;;4938894;28;19954;-87
2023/08/21 18:23:46;;;;;;;;;;;;;;;;;;4933246;28;19993;-88
2023/08/21 18:26:13;;;;;;;;;;;;;;;;;;4935094;29;20644;-87
2023/08/21 18:28:39;;;;;;;;;;;;;;;;;;4948971;28;19969;-87
2023/08/21 18:31:05;;;;;;;;;;;;;;;;;;4932545;28;20366;-88
2023/08/21 18:33:31;;;;;;;;;;;;;;;;;;4949406;28;19921;-88
2023/08/21 18:35:57;;;;;;;;;;;;;;;;;;4934867;29;19911;-87
2023/08/21 18:38:23;;;;;;;;;;;;;;;;;;4929921;28;20355;-87
2023/08/21 18:40:49;;;;;;;;;;;;;;;;;;4938244;28;19930;-87
2023/08/21 18:43:15;;;;;;;;;;;;;;;;;;4929319;29;19918;-87
2023/08/21 18:45:41;;;;;;;;;;;;;;;;;;4931924;28;19996;-87
2023/08/21 18:48:07;;;;;;;;;;;;;;;;;;4934161;29;19915;-87
2023/08/21 18:50:33;;;;;;;;;;;;;;;;;;4937928;28;19915;-87
2023/08/21 18:52:58;;;;;;;;;;;;;;;;;;4936912;28;19941;-87
2023/08/21 18:55:24;;;;;;;;;;;;;;;;;;4935961;28;19910;-87
2023/08/21 18:57:50;;;;;;;;;;;;;;;;;;4927906;29;19914;-87
2023/08/21 19:00:17;;;;;;;;;;;;;;;;;;4935548;28;19918;-87